Time;durP1;ratioP1;P1;durP2;ratioP2;P2;SDS_P1;SDS_P2;PMS_P1;PMS_P2;Temp;Humidity;BMP_temperature;BMP_pressure;BME280_temperature;BME280_humidity;BME280_pressure;Samples;Min_cycle;Max_cycle;Signal;HPM_P1;HPM_P2
2023/06/01 00:00:33;;;;;;;19.20;10.38;;;13.70;81.50;;;;;;4976910;28;20430;-80
2023/06/01 00:02:59;;;;;;;22.05;11.50;;;13.70;81.80;;;;;;4994396;28;20538;-80
2023/06/01 00:05:25;;;;;;;20.05;11.52;;;13.70;81.70;;;;;;4976973;28;20029;-81
2023/06/01 00:07:50;;;;;;;21.83;12.10;;;13.70;82.20;;;;;;4993370;28;20023;-80
2023/06/01 00:10:16;;;;;;;18.45;9.88;;;13.60;82.00;;;;;;4993042;28;20023;-79
2023/06/01 00:12:43;;;;;;;18.90;11.40;;;13.60;81.80;;;;;;4993148;28;20026;-79
2023/06/01 00:15:09;;;;;;;22.60;12.15;;;13.50;82.30;;;;;;4993056;28;20030;-79
2023/06/01 00:17:34;;;;;;;16.13;10.68;;;13.50;82.70;;;;;;4992829;28;20026;-79
2023/06/01 00:20:07;;;;;;;16.95;11.50;;;13.50;82.60;;;;;;4994045;28;20026;-80
2023/06/01 00:22:38;;;;;;;16.90;11.32;;;13.40;82.50;;;;;;4993965;28;20022;-79
2023/06/01 00:25:06;;;;;;;19.08;11.07;;;13.30;82.60;;;;;;4992819;28;20422;-79
2023/06/01 00:27:31;;;;;;;19.25;9.55;;;13.30;82.60;;;;;;4992591;28;20109;-78
2023/06/01 00:29:57;;;;;;;17.05;9.38;;;13.30;82.50;;;;;;4993692;28;20110;-78
2023/06/01 00:32:22;;;;;;;17.98;9.30;;;13.20;82.70;;;;;;4992936;28;20023;-78
2023/06/01 00:34:48;;;;;;;14.77;9.48;;;13.20;83.30;;;;;;4992616;28;20038;-77
2023/06/01 00:37:14;;;;;;;16.10;9.48;;;13.20;83.50;;;;;;4994040;28;20030;-79
2023/06/01 00:39:39;;;;;;;16.75;9.73;;;13.10;83.50;;;;;;4992563;28;20050;-78
2023/06/01 00:42:06;;;;;;;16.67;8.65;;;13.10;83.70;;;;;;4993782;28;20027;-78
2023/06/01 00:44:31;;;;;;;16.77;8.77;;;13.00;83.90;;;;;;4992455;28;20042;-79
2023/06/01 00:46:59;;;;;;;16.45;8.35;;;13.00;84.00;;;;;;4997120;28;20383;-78
2023/06/01 00:49:25;;;;;;;15.80;8.13;;;13.00;84.00;;;;;;4997794;28;20019;-79
2023/06/01 00:51:51;;;;;;;16.23;8.23;;;13.00;84.50;;;;;;4997879;28;20029;-78
2023/06/01 00:54:16;;;;;;;14.30;7.57;;;12.90;84.60;;;;;;4997852;28;20104;-77
2023/06/01 00:56:42;;;;;;;14.40;7.65;;;13.00;84.30;;;;;;4997577;28;20042;-78
2023/06/01 00:59:08;;;;;;;17.27;8.30;;;12.90;84.50;;;;;;4980099;28;20057;-78
2023/06/01 01:01:36;;;;;;;14.55;6.68;;;12.90;84.60;;;;;;4997527;28;20109;-78
2023/06/01 01:04:02;;;;;;;14.98;6.93;;;13.00;84.60;;;;;;4997500;28;20026;-79
2023/06/01 01:06:41;;;;;;;17.08;9.32;;;12.90;84.50;;;;;;4980131;28;20023;-79
2023/06/01 01:09:35;;;;;;;14.95;8.10;;;12.90;84.80;;;;;;4997416;28;20022;-80
2023/06/01 01:12:09;;;;;;;16.42;7.15;;;12.90;84.90;;;;;;4996256;28;20033;-79
2023/06/01 01:14:50;;;;;;;15.68;8.27;;;12.90;85.60;;;;;;4996146;28;20030;-81
2023/06/01 01:17:26;;;;;;;12.10;7.38;;;12.90;85.70;;;;;;4996110;28;20121;-79
2023/06/01 01:20:05;;;;;;;14.52;6.68;;;12.90;86.00;;;;;;4996015;28;20031;-80
2023/06/01 01:22:53;;;;;;;15.57;7.03;;;12.80;86.20;;;;;;4997335;28;20054;-80
2023/06/01 01:25:28;;;;;;;15.90;7.03;;;12.80;86.30;;;;;;4996033;28;20042;-80
2023/06/01 01:28:08;;;;;;;14.32;6.57;;;12.80;86.30;;;;;;4995630;28;20049;-80
2023/06/01 01:30:37;;;;;;;13.15;6.13;;;12.80;86.80;;;;;;4997148;28;20097;-79
2023/06/01 01:33:04;;;;;;;16.27;7.45;;;12.80;86.90;;;;;;4997202;28;20034;-81
2023/06/01 01:35:31;;;;;;;15.93;7.90;;;12.80;87.40;;;;;;4997156;28;20026;-80
2023/06/01 01:37:57;;;;;;;15.80;6.63;;;12.80;87.70;;;;;;4997090;28;20113;-80
2023/06/01 01:40:23;;;;;;;14.48;6.40;;;12.80;87.30;;;;;;4995742;28;20077;-80
2023/06/01 01:42:51;;;;;;;13.15;6.18;;;12.80;87.50;;;;;;4996827;28;20571;-80
2023/06/01 01:45:17;;;;;;;14.98;6.57;;;12.80;87.40;;;;;;4996906;28;20034;-81
2023/06/01 01:47:51;;;;;;;12.98;6.35;;;12.80;87.70;;;;;;4996863;28;20030;-80
2023/06/01 01:50:21;;;;;;;13.10;7.03;;;12.80;87.90;;;;;;4996670;28;20383;-81
2023/06/01 01:52:48;;;;;;;11.68;5.93;;;12.80;88.00;;;;;;4995437;28;20493;-81
2023/06/01 01:55:15;;;;;;;13.13;6.47;;;12.80;87.90;;;;;;4996619;28;20110;-80
2023/06/01 01:57:41;;;;;;;13.48;6.05;;;12.80;87.90;;;;;;4993996;28;20113;-78
2023/06/01 02:00:08;;;;;;;12.15;6.50;;;12.90;87.80;;;;;;4996496;28;20031;-79
2023/06/01 02:02:34;;;;;;;12.90;5.90;;;12.80;87.60;;;;;;4996331;28;20030;-80
2023/06/01 02:05:00;;;;;;;10.50;5.45;;;12.80;87.60;;;;;;4995082;28;20015;-80
2023/06/01 02:07:25;;;;;;;13.35;5.65;;;12.80;87.40;;;;;;4996537;28;20352;-81
2023/06/01 02:09:51;;;;;;;11.32;5.75;;;12.80;87.50;;;;;;4995131;28;20546;-79
2023/06/01 02:12:16;;;;;;;10.70;5.68;;;12.80;87.40;;;;;;4978964;28;20035;-78
2023/06/01 02:14:42;;;;;;;16.70;7.10;;;12.80;87.50;;;;;;4995151;28;20360;-80
2023/06/01 02:17:07;;;;;;;11.65;5.45;;;12.80;87.70;;;;;;4994961;28;20097;-80
2023/06/01 02:19:34;;;;;;;9.68;5.75;;;12.80;87.60;;;;;;4995013;28;20545;-80
2023/06/01 02:21:59;;;;;;;11.70;6.28;;;12.80;87.60;;;;;;4995072;28;20037;-80
2023/06/01 02:24:25;;;;;;;9.43;5.22;;;12.90;87.60;;;;;;4994850;28;20483;-80
2023/06/01 02:26:55;;;;;;;9.88;5.78;;;12.80;87.50;;;;;;4994793;28;20038;-80
2023/06/01 02:29:24;;;;;;;10.98;6.10;;;12.80;87.50;;;;;;4995922;28;20057;-80
2023/06/01 02:31:51;;;;;;;13.00;6.05;;;12.90;88.00;;;;;;4996211;28;20471;-81
2023/06/01 02:34:18;;;;;;;17.50;6.60;;;12.90;87.90;;;;;;4996034;28;20057;-80
2023/06/01 02:36:43;;;;;;;16.63;6.90;;;12.90;88.10;;;;;;4995889;28;20494;-80
2023/06/01 02:39:09;;;;;;;13.98;7.47;;;12.90;88.30;;;;;;4995921;28;20034;-81
2023/06/01 02:41:35;;;;;;;11.00;6.47;;;12.90;88.40;;;;;;4995948;28;20487;-81
2023/06/01 02:44:02;;;;;;;11.95;5.95;;;12.90;88.40;;;;;;4994651;28;20034;-79
2023/06/01 02:46:27;;;;;;;13.90;6.53;;;12.90;88.40;;;;;;4994522;28;20123;-80
2023/06/01 02:48:53;;;;;;;15.48;7.25;;;12.90;88.40;;;;;;4994544;28;20105;-80
2023/06/01 02:51:19;;;;;;;14.40;7.13;;;12.90;88.60;;;;;;4994470;28;20041;-81
2023/06/01 02:53:46;;;;;;;14.43;6.60;;;12.90;88.70;;;;;;4994402;28;20373;-80
2023/06/01 02:56:13;;;;;;;13.55;7.78;;;12.90;88.70;;;;;;4995955;28;20038;-80
2023/06/01 02:58:39;;;;;;;14.60;7.25;;;12.80;89.10;;;;;;4995522;28;20049;-80
2023/06/01 03:01:04;;;;;;;12.73;6.13;;;12.90;88.60;;;;;;4994224;28;20034;-80
2023/06/01 03:03:30;;;;;;;11.95;6.38;;;12.90;88.40;;;;;;4994110;28;20061;-81
2023/06/01 03:05:57;;;;;;;12.77;6.18;;;12.90;88.20;;;;;;4994021;28;20049;-80
2023/06/01 03:08:24;;;;;;;15.13;6.65;;;12.90;88.20;;;;;;4994893;28;20053;-80
2023/06/01 03:10:50;;;;;;;15.23;6.90;;;12.80;88.10;;;;;;4994059;28;20052;-80
2023/06/01 03:13:16;;;;;;;10.50;6.20;;;12.80;88.00;;;;;;4995197;28;20172;-80
2023/06/01 03:15:41;;;;;;;11.55;6.53;;;12.80;88.10;;;;;;4994222;28;20117;-79
2023/06/01 03:18:08;;;;;;;17.10;6.75;;;12.80;87.90;;;;;;4993928;28;20123;-79
2023/06/01 03:20:34;;;;;;;12.48;6.32;;;12.70;87.80;;;;;;4993907;28;20049;-80
2023/06/01 03:23:00;;;;;;;13.40;6.78;;;12.70;88.00;;;;;;4995060;28;20482;-80
2023/06/01 03:25:26;;;;;;;16.80;6.15;;;12.60;88.10;;;;;;4993802;28;20037;-79
2023/06/01 03:27:52;;;;;;;10.35;6.32;;;12.60;88.10;;;;;;4993523;28;20022;-80
2023/06/01 03:30:17;;;;;;;13.38;6.70;;;12.60;88.30;;;;;;4995331;28;20109;-79
2023/06/01 03:32:44;;;;;;;14.07;7.45;;;12.60;88.40;;;;;;4994811;28;20028;-80
2023/06/01 03:35:11;;;;;;;15.13;7.32;;;12.50;88.40;;;;;;4977580;28;20110;-79
2023/06/01 03:37:40;;;;;;;17.05;8.00;;;12.50;88.40;;;;;;4993578;28;20105;-78
2023/06/01 03:40:10;;;;;;;15.90;6.68;;;12.50;88.50;;;;;;4994711;28;20027;-80
2023/06/01 03:42:40;;;;;;;14.90;6.57;;;12.50;88.60;;;;;;4993544;28;20471;-81
2023/06/01 03:45:06;;;;;;;16.45;6.65;;;12.50;88.60;;;;;;4994639;28;20026;-80
2023/06/01 03:47:33;;;;;;;12.18;6.35;;;12.50;88.70;;;;;;4994594;28;20023;-80
2023/06/01 03:49:59;;;;;;;12.32;6.57;;;12.50;89.10;;;;;;4994532;28;20395;-79
2023/06/01 03:52:28;;;;;;;15.90;6.60;;;12.40;88.80;;;;;;4993280;28;20057;-78
2023/06/01 03:54:55;;;;;;;16.00;7.05;;;12.40;89.10;;;;;;4993247;28;20027;-79
2023/06/01 03:57:21;;;;;;;12.27;5.60;;;12.30;89.00;;;;;;4977230;28;20467;-79
2023/06/01 03:59:47;;;;;;;13.30;6.40;;;12.40;89.10;;;;;;4976987;28;20050;-80
2023/06/01 04:02:13;;;;;;;17.42;6.18;;;12.40;89.40;;;;;;4994513;28;20128;-80
2023/06/01 04:04:45;;;;;;;15.60;6.88;;;12.40;89.40;;;;;;4993009;28;20031;-80
2023/06/01 04:07:14;;;;;;;15.75;5.88;;;12.30;89.40;;;;;;4994453;28;20050;-80
2023/06/01 04:09:43;;;;;;;14.77;5.43;;;12.40;89.60;;;;;;4994271;28;20037;-81
2023/06/01 04:12:10;;;;;;;14.32;6.00;;;12.40;89.70;;;;;;4994174;28;20027;-80
2023/06/01 04:14:36;;;;;;;16.52;6.38;;;12.40;90.00;;;;;;4994132;28;20038;-81
2023/06/01 04:17:02;;;;;;;17.35;6.82;;;12.40;90.00;;;;;;4976725;28;20038;-80
2023/06/01 04:19:28;;;;;;;14.13;6.03;;;12.40;90.20;;;;;;4993829;28;20391;-80
2023/06/01 04:21:53;;;;;;;13.23;6.88;;;12.40;90.10;;;;;;4992521;28;20030;-80
2023/06/01 04:24:19;;;;;;;13.13;5.87;;;12.40;90.00;;;;;;4993473;28;20510;-79
2023/06/01 04:26:45;;;;;;;12.18;5.78;;;12.40;90.00;;;;;;5009163;28;20069;-80
2023/06/01 04:29:11;;;;;;;13.05;6.45;;;12.40;89.80;;;;;;5001808;28;20561;-80
2023/06/01 04:31:38;;;;;;;12.93;6.25;;;12.50;90.00;;;;;;4998973;28;20391;-81
2023/06/01 04:34:05;;;;;;;15.13;6.53;;;12.50;90.00;;;;;;5008593;28;20042;-80
2023/06/01 04:36:33;;;;;;;14.27;5.97;;;12.50;90.00;;;;;;4991890;28;20386;-80
2023/06/01 04:38:58;;;;;;;12.05;5.35;;;12.50;89.70;;;;;;4992293;28;20109;-79
2023/06/01 04:41:25;;;;;;;8.57;5.10;;;12.50;89.50;;;;;;4992798;28;20117;-78
2023/06/01 04:43:52;;;;;;;10.65;5.50;;;12.60;89.40;;;;;;4993859;28;20040;-78
2023/06/01 04:46:24;;;;;;;12.45;5.63;;;12.60;89.30;;;;;;4993823;28;20431;-78
2023/06/01 04:48:55;;;;;;;12.00;5.63;;;12.60;89.20;;;;;;4992717;28;20038;-79
2023/06/01 04:51:21;;;;;;;12.70;5.65;;;12.60;89.10;;;;;;4992701;28;20113;-79
2023/06/01 04:53:51;;;;;;;11.00;5.53;;;12.70;89.60;;;;;;4993704;28;20167;-79
2023/06/01 04:56:26;;;;;;;14.02;5.88;;;12.70;88.80;;;;;;4992311;28;20109;-79
2023/06/01 04:58:53;;;;;;;12.80;5.65;;;12.70;88.70;;;;;;4992448;28;20495;-80
2023/06/01 05:01:19;;;;;;;10.50;5.15;;;12.70;88.50;;;;;;4993707;28;20500;-79
2023/06/01 05:03:45;;;;;;;11.10;6.53;;;12.70;88.30;;;;;;4992294;28;20049;-80
2023/06/01 05:06:12;;;;;;;11.55;5.20;;;12.70;88.10;;;;;;4992491;28;20069;-80
2023/06/01 05:08:41;;;;;;;15.15;5.80;;;12.80;88.10;;;;;;4993728;28;20425;-80
2023/06/01 05:11:08;;;;;;;15.27;6.15;;;12.80;88.20;;;;;;4976526;28;20038;-80
2023/06/01 05:13:35;;;;;;;9.35;5.82;;;12.90;88.30;;;;;;4992349;28;20089;-80
2023/06/01 05:16:02;;;;;;;12.07;5.93;;;12.80;88.30;;;;;;4993635;28;20040;-80
2023/06/01 05:18:27;;;;;;;13.20;6.55;;;12.90;88.30;;;;;;4993599;28;20092;-79
2023/06/01 05:20:53;;;;;;;14.75;6.00;;;12.90;88.40;;;;;;4976195;28;20034;-79
2023/06/01 05:23:18;;;;;;;15.35;6.75;;;12.90;88.40;;;;;;4991918;28;20070;-80
2023/06/01 05:25:44;;;;;;;13.23;6.53;;;13.00;88.30;;;;;;4989926;28;20046;-79
2023/06/01 05:28:10;;;;;;;10.77;5.97;;;13.00;88.00;;;;;;4985983;28;20047;-79
2023/06/01 05:30:37;;;;;;;13.85;6.30;;;13.00;87.70;;;;;;4990610;28;20046;-79
2023/06/01 05:33:03;;;;;;;11.90;5.53;;;13.10;87.60;;;;;;4984963;28;20479;-78
2023/06/01 05:35:29;;;;;;;13.98;6.18;;;13.10;87.50;;;;;;4996574;28;20109;-79
2023/06/01 05:37:54;;;;;;;17.20;6.03;;;13.20;87.30;;;;;;4995993;28;20125;-79
2023/06/01 05:40:20;;;;;;;13.55;6.30;;;13.20;87.20;;;;;;4997286;28;20062;-80
2023/06/01 05:42:46;;;;;;;18.75;6.38;;;13.20;86.90;;;;;;4993433;28;20053;-81
2023/06/01 05:45:12;;;;;;;16.70;6.13;;;13.30;86.80;;;;;;4980925;28;20468;-81
2023/06/01 05:47:37;;;;;;;15.13;7.05;;;13.30;86.70;;;;;;4977562;28;20472;-82
2023/06/01 05:50:04;;;;;;;15.43;5.55;;;13.30;86.70;;;;;;5003860;28;20471;-82
2023/06/01 05:52:30;;;;;;;11.40;5.85;;;13.40;86.60;;;;;;4996760;28;20101;-81
2023/06/01 05:54:56;;;;;;;12.77;6.28;;;13.50;86.40;;;;;;4995358;28;20058;-82
2023/06/01 05:57:21;;;;;;;14.70;7.03;;;13.50;86.30;;;;;;5011808;28;20105;-83
2023/06/01 05:59:47;;;;;;;14.75;6.28;;;13.50;86.30;;;;;;4995419;28;20041;-81
2023/06/01 06:02:13;;;;;;;18.77;6.25;;;13.60;86.30;;;;;;4996609;28;20543;-82
2023/06/01 06:04:40;;;;;;;13.13;6.07;;;13.60;86.20;;;;;;4996538;28;20383;-82
2023/06/01 06:07:06;;;;;;;12.38;6.38;;;13.70;86.10;;;;;;4982587;28;20169;-82
2023/06/01 06:09:32;;;;;;;12.85;6.68;;;13.80;85.80;;;;;;4975568;28;20118;-82
2023/06/01 06:11:58;;;;;;;11.15;5.60;;;13.80;85.80;;;;;;4976819;28;20106;-83
2023/06/01 06:14:23;;;;;;;12.43;5.32;;;13.90;85.70;;;;;;4992249;28;20030;-82
2023/06/01 06:16:49;;;;;;;11.82;5.75;;;14.00;85.50;;;;;;4991719;28;20027;-81
2023/06/01 06:19:16;;;;;;;12.32;6.60;;;14.00;85.20;;;;;;4988830;28;20474;-81
2023/06/01 06:21:42;;;;;;;11.63;5.78;;;14.00;84.50;;;;;;5015651;28;20090;-79
2023/06/01 06:24:08;;;;;;;12.43;5.72;;;14.10;84.40;;;;;;5015621;28;20062;-83
2023/06/01 06:26:34;;;;;;;15.65;5.93;;;14.10;84.30;;;;;;5021264;28;20065;-81
2023/06/01 06:28:59;;;;;;;12.70;5.55;;;14.10;84.20;;;;;;4995219;28;20559;-81
2023/06/01 06:31:25;;;;;;;11.88;5.03;;;14.20;84.80;;;;;;5009654;28;20121;-82
2023/06/01 06:33:51;;;;;;;12.60;5.53;;;14.20;84.20;;;;;;4994736;28;20034;-82
2023/06/01 06:36:17;;;;;;;11.90;5.90;;;14.30;84.30;;;;;;4995981;28;20026;-81
2023/06/01 06:38:42;;;;;;;11.35;4.95;;;14.30;84.30;;;;;;4994438;28;20030;-80
2023/06/01 06:41:08;;;;;;;14.05;5.40;;;14.40;84.20;;;;;;5011106;28;20041;-79
2023/06/01 06:43:34;;;;;;;10.07;5.38;;;14.50;84.10;;;;;;4994890;28;20491;-74
2023/06/01 06:46:00;;;;;;;13.35;5.38;;;14.60;83.90;;;;;;4994594;28;20383;-76
2023/06/01 06:48:25;;;;;;;14.50;5.63;;;14.70;83.50;;;;;;4995678;28;20023;-75
2023/06/01 06:50:51;;;;;;;10.90;4.97;;;14.70;83.00;;;;;;4994403;28;20030;-76
2023/06/01 06:53:17;;;;;;;10.32;4.82;;;14.80;82.80;;;;;;5010550;28;20077;-75
2023/06/01 06:55:44;;;;;;;14.55;5.15;;;14.90;82.50;;;;;;4995618;28;20037;-75
2023/06/01 06:58:10;;;;;;;11.52;4.68;;;14.90;82.20;;;;;;4995540;28;20496;-74
2023/06/01 07:00:37;;;;;;;12.73;4.47;;;15.00;81.90;;;;;;4994167;28;20482;-74
2023/06/01 07:03:03;;;;;;;11.52;4.85;;;15.00;81.60;;;;;;4995514;28;20482;-75
2023/06/01 07:05:29;;;;;;;10.32;4.93;;;15.10;81.30;;;;;;4995171;28;20394;-75
2023/06/01 07:07:55;;;;;;;10.73;4.60;;;15.10;80.90;;;;;;5010657;28;20041;-75
2023/06/01 07:10:21;;;;;;;10.75;4.22;;;15.20;80.70;;;;;;4994069;28;20390;-76
2023/06/01 07:12:47;;;;;;;11.75;4.40;;;15.20;80.40;;;;;;4995685;28;20360;-75
2023/06/01 07:15:13;;;;;;;8.63;4.07;;;15.30;80.20;;;;;;5010525;28;20436;-74
2023/06/01 07:17:38;;;;;;;11.68;4.22;;;15.30;79.90;;;;;;4993846;28;20109;-76
2023/06/01 07:20:06;;;;;;;10.25;4.53;;;15.40;79.60;;;;;;4995077;28;20113;-75
2023/06/01 07:22:35;;;;;;;10.43;4.45;;;15.40;79.30;;;;;;4995036;28;20558;-76
2023/06/01 07:25:01;;;;;;;9.27;4.70;;;15.40;79.00;;;;;;5010104;28;20093;-76
2023/06/01 07:27:26;;;;;;;11.68;4.30;;;15.50;78.80;;;;;;4993669;28;20034;-75
2023/06/01 07:29:55;;;;;;;11.00;4.95;;;15.50;78.60;;;;;;5009939;28;20058;-75
2023/06/01 07:32:25;;;;;;;7.75;3.35;;;15.50;78.30;;;;;;4993786;28;20498;-75
2023/06/01 07:34:51;;;;;;;9.55;4.13;;;15.50;78.10;;;;;;4993488;28;20026;-76
2023/06/01 07:37:21;;;;;;;9.50;4.18;;;15.50;77.90;;;;;;4994826;28;20034;-76
2023/06/01 07:39:47;;;;;;;12.88;4.15;;;15.50;77.80;;;;;;4993373;28;20479;-76
2023/06/01 07:42:13;;;;;;;11.70;4.35;;;15.50;77.90;;;;;;5009794;28;20041;-75
2023/06/01 07:44:38;;;;;;;8.73;4.53;;;15.50;77.90;;;;;;5009555;28;20483;-75
2023/06/01 07:47:04;;;;;;;12.35;4.43;;;15.50;78.00;;;;;;4994419;28;20058;-76
2023/06/01 07:49:30;;;;;;;14.07;5.28;;;15.50;78.00;;;;;;5009746;28;20046;-76
2023/06/01 07:51:56;;;;;;;9.43;4.50;;;15.40;78.00;;;;;;4993339;28;20031;-75
2023/06/01 07:54:22;;;;;;;10.50;4.18;;;15.50;78.10;;;;;;4994642;28;20502;-76
2023/06/01 07:56:47;;;;;;;8.32;4.13;;;15.50;78.00;;;;;;4994624;28;20031;-76
2023/06/01 07:59:13;;;;;;;9.90;4.00;;;15.60;77.70;;;;;;5009540;28;20034;-74
2023/06/01 08:01:38;;;;;;;12.90;4.97;;;15.60;77.40;;;;;;4993320;28;20086;-76
2023/06/01 08:04:04;;;;;;;9.30;4.22;;;15.70;77.10;;;;;;5009394;28;20573;-75
2023/06/01 08:06:35;;;;;;;11.40;4.40;;;15.70;76.80;;;;;;4994225;28;20042;-75
2023/06/01 08:09:01;;;;;;;11.32;4.63;;;15.80;76.60;;;;;;4994225;28;20096;-75
2023/06/01 08:11:27;;;;;;;10.50;4.57;;;15.80;76.30;;;;;;5009194;28;20027;-74
2023/06/01 08:13:53;;;;;;;10.07;4.22;;;15.90;76.10;;;;;;4992947;28;20030;-76
2023/06/01 08:16:18;;;;;;;9.80;4.30;;;15.90;75.80;;;;;;5009310;28;20100;-75
2023/06/01 08:18:44;;;;;;;8.60;3.85;;;15.90;75.60;;;;;;4992788;28;20044;-73
2023/06/01 08:21:10;;;;;;;11.45;4.45;;;16.00;75.40;;;;;;4993110;28;20121;-76
2023/06/01 08:23:36;;;;;;;10.27;4.05;;;16.00;75.30;;;;;;4992906;28;20444;-76
2023/06/01 08:26:02;;;;;;;9.82;4.22;;;16.00;75.10;;;;;;4994266;28;20515;-74
2023/06/01 08:28:27;;;;;;;8.68;3.38;;;16.10;75.00;;;;;;5008883;28;20159;-75
2023/06/01 08:30:53;;;;;;;8.80;3.47;;;16.10;74.90;;;;;;4992737;28;20049;-75
2023/06/01 08:33:18;;;;;;;9.02;3.97;;;16.10;74.80;;;;;;4992816;28;20471;-74
2023/06/01 08:35:44;;;;;;;10.05;3.83;;;16.20;74.80;;;;;;4994075;28;20037;-75
2023/06/01 08:38:10;;;;;;;8.95;3.83;;;16.20;74.60;;;;;;4993895;28;20038;-75
2023/06/01 08:40:36;;;;;;;8.40;3.60;;;16.30;74.50;;;;;;4992736;28;20399;-75
2023/06/01 08:43:04;;;;;;;7.45;3.45;;;16.30;74.30;;;;;;4993690;28;20073;-76
2023/06/01 08:45:32;;;;;;;11.18;4.00;;;16.30;74.20;;;;;;4993779;28;20368;-75
2023/06/01 08:47:58;;;;;;;8.13;3.45;;;16.30;74.20;;;;;;4993855;28;20022;-74
2023/06/01 08:50:27;;;;;;;10.00;3.85;;;16.40;74.20;;;;;;4993755;28;20030;-77
2023/06/01 08:52:56;;;;;;;9.40;4.20;;;16.50;73.90;;;;;;4993967;28;20050;-80
2023/06/01 08:55:22;;;;;;;7.93;3.35;;;16.50;73.70;;;;;;4992505;28;20501;-80
2023/06/01 08:57:48;;;;;;;7.82;3.72;;;16.60;73.50;;;;;;4993427;28;20026;-76
2023/06/01 09:00:15;;;;;;;7.90;3.88;;;16.60;73.20;;;;;;4993654;28;20105;-75
2023/06/01 09:02:42;;;;;;;8.07;3.35;;;16.70;72.90;;;;;;4993651;28;20031;-74
2023/06/01 09:05:08;;;;;;;8.07;3.53;;;16.80;72.60;;;;;;5008761;28;20057;-76
2023/06/01 09:07:34;;;;;;;7.60;3.35;;;16.80;72.30;;;;;;4996227;28;20042;-77
2023/06/01 09:10:00;;;;;;;6.70;3.03;;;16.90;72.20;;;;;;4997526;28;20034;-73
2023/06/01 09:12:31;;;;;;;8.88;3.28;;;16.90;72.10;;;;;;4997697;28;20462;-74
2023/06/01 09:15:08;;;;;;;7.18;3.40;;;17.00;72.00;;;;;;4997663;28;20041;-75
2023/06/01 09:17:34;;;;;;;7.03;3.17;;;17.00;71.80;;;;;;4997295;28;20097;-75
2023/06/01 09:20:00;;;;;;;7.88;2.88;;;17.10;71.70;;;;;;4996265;28;20031;-75
2023/06/01 09:22:45;;;;;;;7.45;3.13;;;17.20;71.50;;;;;;4997461;28;20041;-75
2023/06/01 09:25:13;;;;;;;7.22;3.28;;;17.30;71.10;;;;;;4996056;28;20151;-75
2023/06/01 09:27:48;;;;;;;8.75;2.63;;;17.30;70.90;;;;;;4997235;28;20035;-76
2023/06/01 09:30:15;;;;;;;7.13;3.10;;;17.40;70.60;;;;;;4996946;28;20046;-74
2023/06/01 09:32:42;;;;;;;8.60;3.67;;;17.50;70.40;;;;;;4997048;28;20037;-74
2023/06/01 09:35:09;;;;;;;8.35;3.22;;;17.60;70.10;;;;;;4997356;28;20026;-74
2023/06/01 09:37:36;;;;;;;7.68;2.95;;;17.60;69.90;;;;;;4995642;28;20498;-75
2023/06/01 09:40:03;;;;;;;7.28;2.47;;;17.70;69.80;;;;;;4995836;28;20019;-76
2023/06/01 09:42:34;;;;;;;8.95;3.03;;;17.70;69.50;;;;;;5011948;28;20581;-75
2023/06/01 09:45:20;;;;;;;8.15;3.08;;;17.90;69.40;;;;;;4997183;28;20476;-76
2023/06/01 09:47:46;;;;;;;8.55;2.97;;;17.90;69.10;;;;;;4996762;28;20546;-75
2023/06/01 09:50:35;;;;;;;8.75;2.75;;;18.00;69.00;;;;;;5011803;28;20038;-76
2023/06/01 09:53:01;;;;;;;8.65;2.40;;;18.00;68.80;;;;;;4996718;28;20030;-74
2023/06/01 09:55:27;;;;;;;7.03;2.50;;;18.10;68.80;;;;;;4996647;28;20026;-76
2023/06/01 09:58:22;;;;;;;7.30;2.90;;;18.20;68.60;;;;;;4996877;28;20038;-73
2023/06/01 10:00:51;;;;;;;6.85;2.83;;;18.20;68.70;;;;;;4996638;28;20029;-75
2023/06/01 10:03:19;;;;;;;7.05;1.98;;;18.30;69.40;;;;;;4995246;28;20041;-75
2023/06/01 10:05:46;;;;;;;6.47;2.95;;;18.30;68.60;;;;;;4996614;28;20018;-76
2023/06/01 10:08:13;;;;;;;5.68;2.55;;;18.40;68.40;;;;;;4996528;28;20026;-75
2023/06/01 10:10:41;;;;;;;8.07;2.85;;;18.50;68.00;;;;;;4996421;28;20105;-76
2023/06/01 10:13:07;;;;;;;6.50;2.42;;;18.60;67.80;;;;;;4996378;28;20026;-74
2023/06/01 10:15:33;;;;;;;6.28;2.33;;;18.70;67.50;;;;;;5011655;28;20034;-74
2023/06/01 10:18:00;;;;;;;6.32;2.50;;;18.80;67.50;;;;;;4995315;28;20383;-75
2023/06/01 10:20:26;;;;;;;7.70;2.80;;;18.80;67.20;;;;;;5011366;28;20053;-76
2023/06/01 10:22:52;;;;;;;7.38;2.25;;;18.90;67.00;;;;;;4995068;28;20497;-73
2023/06/01 10:25:23;;;;;;;5.88;2.17;;;19.00;66.80;;;;;;4996210;28;20475;-73
2023/06/01 10:27:59;;;;;;;6.75;2.63;;;19.10;66.50;;;;;;4996073;28;20025;-76
2023/06/01 10:30:25;;;;;;;7.00;2.60;;;19.20;66.20;;;;;;5010650;28;20503;-75
2023/06/01 10:32:51;;;;;;;9.70;2.53;;;19.30;65.90;;;;;;5011082;28;20054;-76
2023/06/01 10:35:29;;;;;;;6.13;2.22;;;19.40;65.70;;;;;;4994738;28;20033;-76
2023/06/01 10:38:07;;;;;;;5.55;2.47;;;19.50;65.20;;;;;;4995940;28;20386;-76
2023/06/01 10:40:37;;;;;;;5.88;2.33;;;19.70;64.90;;;;;;4995991;28;20057;-75
2023/06/01 10:43:03;;;;;;;6.35;2.35;;;19.80;64.70;;;;;;5010751;28;20031;-75
2023/06/01 10:45:39;;;;;;;7.90;2.53;;;20.00;64.30;;;;;;4995895;28;20026;-74
2023/06/01 10:48:10;;;;;;;6.15;2.10;;;20.20;63.70;;;;;;4994686;28;20022;-75
2023/06/01 10:50:37;;;;;;;5.03;1.95;;;20.30;63.40;;;;;;4994551;28;20089;-76
2023/06/01 10:53:29;;;;;;;4.47;1.95;;;20.50;63.20;;;;;;5010602;28;20027;-75
2023/06/01 10:56:16;;;;;;;6.47;2.75;;;20.70;62.30;;;;;;4995821;28;20011;-76
2023/06/01 10:58:42;;;;;;;6.53;2.25;;;21.00;61.90;;;;;;4995899;28;20030;-79
2023/06/01 11:01:10;;;;;;;6.85;2.65;;;21.20;61.90;;;;;;4995456;28;20041;-80
2023/06/01 11:03:45;;;;;;;5.30;2.40;;;21.40;61.40;;;;;;4995469;28;20026;-81
2023/06/01 11:06:31;;;;;;;6.72;2.20;;;21.50;60.30;;;;;;4994211;28;20416;-82
2023/06/01 11:09:03;;;;;;;7.70;2.58;;;21.80;59.60;;;;;;4995242;28;20467;-79
2023/06/01 11:11:51;;;;;;;5.75;2.25;;;22.00;59.50;;;;;;4995130;28;20152;-79
2023/06/01 11:14:30;;;;;;;6.20;2.22;;;22.20;58.60;;;;;;4995194;28;20457;-81
2023/06/01 11:17:26;;;;;;;9.05;2.60;;;22.30;58.50;;;;;;4995366;28;20487;-78
2023/06/01 11:20:01;;;;;;;6.40;2.47;;;22.50;57.70;;;;;;4995116;28;20061;-80
2023/06/01 11:22:33;;;;;;;5.55;2.30;;;22.50;57.60;;;;;;4995276;28;20026;-81
2023/06/01 11:25:04;;;;;;;8.02;2.33;;;22.60;57.30;;;;;;4995225;28;20030;-79
2023/06/01 11:27:30;;;;;;;6.90;2.38;;;22.70;56.90;;;;;;4995157;28;20034;-82
2023/06/01 11:29:56;;;;;;;5.43;2.00;;;22.90;56.60;;;;;;4994474;28;20046;-81
2023/06/01 11:32:24;;;;;;;5.72;2.13;;;23.10;56.10;;;;;;4994800;28;20027;-82
2023/06/01 11:34:51;;;;;;;6.97;2.20;;;23.30;55.60;;;;;;4994887;28;20045;-81
2023/06/01 11:37:19;;;;;;;5.97;2.80;;;23.50;55.20;;;;;;4994861;28;20510;-82
2023/06/01 11:39:47;;;;;;;5.10;2.63;;;23.80;54.70;;;;;;4994871;28;20022;-80
2023/06/01 11:42:17;;;;;;;6.10;2.00;;;23.90;54.20;;;;;;5009875;28;20034;-80
2023/06/01 11:44:45;;;;;;;5.93;2.10;;;24.20;53.80;;;;;;4994861;28;20034;-80
2023/06/01 11:47:11;;;;;;;6.32;2.28;;;24.40;53.50;;;;;;5009770;28;20026;-82
2023/06/01 11:49:41;;;;;;;5.85;1.85;;;24.60;53.90;;;;;;4994045;28;20022;-81
2023/06/01 11:52:09;;;;;;;6.25;2.65;;;24.80;52.60;;;;;;4994602;28;20109;-80
2023/06/01 11:54:36;;;;;;;7.68;2.58;;;25.00;52.10;;;;;;4994478;28;20387;-81
2023/06/01 11:57:03;;;;;;;5.45;2.38;;;25.20;52.00;;;;;;5009851;28;20038;-81
2023/06/01 11:59:47;;;;;;;9.35;1.90;;;25.40;51.60;;;;;;4994391;28;20026;-80
2023/06/01 12:02:20;;;;;;;;;;;25.50;51.20;;;;;;4994872;28;20069;-82
2023/06/01 12:04:58;;;;;;;5.83;2.33;;;25.70;51.50;;;;;;5009496;28;20385;-80
2023/06/01 12:07:24;;;;;;;5.82;2.38;;;25.70;51.40;;;;;;4993154;28;20281;-80
2023/06/01 12:09:53;;;;;;;9.15;2.67;;;25.90;51.20;;;;;;4994248;28;20432;-80
2023/06/01 12:12:21;;;;;;;7.95;2.70;;;26.20;50.70;;;;;;4992980;28;20026;-81
2023/06/01 12:14:48;;;;;;;4.75;1.75;;;26.30;50.20;;;;;;4994456;28;20380;-81
2023/06/01 12:17:14;;;;;;;5.60;2.25;;;26.50;49.70;;;;;;4994113;28;20035;-82
2023/06/01 12:19:50;;;;;;;5.93;2.47;;;26.70;49.40;;;;;;5009425;28;20057;-80
2023/06/01 12:22:19;;;;;;;6.00;2.17;;;26.90;48.60;;;;;;4992805;28;20111;-82
2023/06/01 12:24:45;;;;;;;5.72;2.15;;;27.10;48.60;;;;;;4983921;28;20437;-81
2023/06/01 12:27:15;;;;;;;6.32;1.80;;;27.30;48.40;;;;;;4987988;28;20086;-82
2023/06/01 12:29:43;;;;;;;5.03;1.70;;;27.50;47.70;;;;;;4971260;28;20078;-82
2023/06/01 12:32:11;;;;;;;6.78;2.50;;;27.60;47.40;;;;;;4973652;28;20496;-81
2023/06/01 12:34:39;;;;;;;5.90;2.05;;;27.80;47.20;;;;;;4973329;28;20499;-83
2023/06/01 12:37:18;;;;;;;5.28;1.80;;;27.90;46.90;;;;;;4974286;28;20420;-81
2023/06/01 12:39:52;;;;;;;5.18;1.75;;;28.10;46.20;;;;;;4973925;28;20118;-81
2023/06/01 12:42:18;;;;;;;5.60;1.48;;;28.20;46.20;;;;;;4974022;28;20534;-81
2023/06/01 12:44:46;;;;;;;5.55;1.92;;;28.40;46.20;;;;;;4989878;28;20034;-81